Fair Haven, VT

2014 December 21 09:20 AM (EST időzóna) (GMT -0500)
Crystal Beach | Change Station
CLOSE
Current Station
Personal Weather Stations
Location: Bomoseen, VT
Elevation: 446 ft
Közeli meteorológiai állomások

Elev 446 ft 43.66 °N, 73.19 °W | Updated 7 seconds ago

Borús
Borús
23.0 °F
Hőérzet 23 °F
N
1.0
Szél: változó Szél: from észak-északkeleti
Gusts 2.0 mph

Ma
High -- | Low -- °F
--% Csapadék valószínű
Tegnapi
High -- | Low -- °F
Precip. -- hvlyk.
7:23 AM 4:19 PM
Fogyó holdsarló, 0% visible
Légnyomás 30.32 hvlyk.
Látótávolság 2.0 mérföld
Felhők Borús 3200 ft
Hőérzet 23 °F
Harmatpont 22 °F
Páratartalom 95%
Rainfall 0.00 hvlyk.
Hóréteg vastagsága Not available.
UV 0 out of 12
Pollen .10 out of 12
A levegő minősége Not available.
Flu Activity Not available.
METAR KRUT 211415Z 00000KT 2SM OVC032 M06/M07 A3032 RMK AO1

More Conditions Fewer Conditions

Légnyomás 30.32 hvlyk.
Látótávolság 2.0 mérföld
Felhők Borús 3200 ft
Hőérzet 23 °F
Harmatpont 22 °F
Páratartalom 95%
Rainfall 0.00 hvlyk.
Hóréteg vastagsága Not available.
UV 0 out of 12
Pollen .10 out of 12
A levegő minősége Not available.
Flu Activity Not available.
METAR KRUT 211415Z 00000KT 2SM OVC032 M06/M07 A3032 RMK AO1

More Conditions Fewer Conditions

10-Day Weather Forecast

Almanac

Csillagászat

Dec. 21, 2014 Kel Nyugszik
Tényleges idő
Civil alkony
Tengerészeti alkony
Csillagászati alkony
Hold
Látható fény időtartama
A nap hossza
Tomorrow will be .
, % of the Moon is Illuminated

Today's Extremes

State Highs State Lows

Community

WunderPhotos

Upload Photos

1,779,392 Fotók feltöltve.

WunderBlogs® & News

Nearby

A levegő minősége

  A levegő minősége AQ Index Szennyezőanyag
Not available.

Hóréteg vastagsága

Station Depth Elevation

Earthquake Activity

város Distance Mag. Time & Date
Minimum magnitude displayed is 2.5.

Coastal Water Temperatures

Hely Hőmérséklet

Közeli meteorológiai állomások